createdAt,value
2019-05-25T00:01:32.099Z,16.40
2019-05-25T00:04:03.015Z,16.20
2019-05-25T00:06:34.709Z,16.00
2019-05-25T00:09:06.836Z,15.90
2019-05-25T00:11:37.583Z,15.90
2019-05-25T00:14:09.228Z,15.90
2019-05-25T00:16:39.924Z,16.00
2019-05-25T00:19:10.693Z,16.00
2019-05-25T00:21:41.723Z,15.80
2019-05-25T00:24:12.933Z,15.70
2019-05-25T00:26:43.883Z,15.70
2019-05-25T00:29:14.808Z,15.70
2019-05-25T00:31:45.615Z,15.70
2019-05-25T00:34:16.370Z,15.80
2019-05-25T00:36:47.448Z,15.50
2019-05-25T00:39:20.088Z,15.40
2019-05-25T00:41:51.446Z,15.40
2019-05-25T00:44:22.208Z,15.50
2019-05-25T00:46:52.954Z,15.40
2019-05-25T00:49:23.894Z,15.50
2019-05-25T00:51:54.756Z,15.60
2019-05-25T00:54:28.253Z,15.60
2019-05-25T00:56:57.999Z,15.70
2019-05-25T00:59:28.820Z,15.60
2019-05-25T01:01:59.555Z,15.60
2019-05-25T01:04:30.503Z,15.50
2019-05-25T01:07:01.193Z,15.50
2019-05-25T01:09:32.053Z,15.60
2019-05-25T01:12:03.478Z,15.60
2019-05-25T01:14:34.348Z,15.60
2019-05-25T01:17:05.160Z,15.60
2019-05-25T01:19:36.098Z,15.60
2019-05-25T01:22:06.903Z,15.60
2019-05-25T01:24:44.311Z,15.60
2019-05-25T01:27:10.153Z,15.60
2019-05-25T01:29:40.841Z,15.60
2019-05-25T01:32:11.658Z,15.60
2019-05-25T01:34:42.693Z,15.60
2019-05-25T01:37:13.668Z,15.60
2019-05-25T01:39:44.423Z,15.60
2019-05-25T01:42:15.483Z,15.70
2019-05-25T01:44:46.249Z,15.70
2019-05-25T01:47:17.148Z,15.80
2019-05-25T01:49:48.084Z,15.70
2019-05-25T01:52:18.978Z,15.70
2019-05-25T01:54:59.509Z,15.70
2019-05-25T01:57:22.563Z,15.60
2019-05-25T01:59:53.583Z,15.60
2019-05-25T02:02:24.293Z,15.60
2019-05-25T02:04:55.308Z,15.60
2019-05-25T02:07:26.244Z,15.50
2019-05-25T02:09:57.244Z,15.50
2019-05-25T02:12:28.063Z,15.60
2019-05-25T02:14:59.060Z,15.60
2019-05-25T02:17:30.153Z,15.60
2019-05-25T02:20:01.393Z,15.40
2019-05-25T02:22:32.226Z,15.40
2019-05-25T02:25:17.093Z,15.40
2019-05-25T02:27:37.278Z,15.40
2019-05-25T02:30:08.430Z,15.50
2019-05-25T02:32:39.363Z,15.50
2019-05-25T02:35:12.233Z,15.50
2019-05-25T02:37:43.873Z,15.20
2019-05-25T02:40:15.118Z,15.10
2019-05-25T02:42:46.180Z,15.20
2019-05-25T02:45:17.484Z,15.30
2019-05-25T02:47:48.647Z,15.10
2019-05-25T02:50:20.720Z,15.20
2019-05-25T02:52:51.564Z,15.10
2019-05-25T02:55:34.481Z,15.00
2019-05-25T02:57:57.675Z,15.10
2019-05-25T03:00:36.623Z,15.10
2019-05-25T03:03:08.070Z,15.10
2019-05-25T03:05:39.136Z,14.90
2019-05-25T03:08:10.334Z,14.70
2019-05-25T03:10:41.613Z,14.70
2019-05-25T03:13:12.548Z,14.70
2019-05-25T03:15:43.769Z,14.60
2019-05-25T03:18:15.049Z,14.70
2019-05-25T03:20:46.089Z,14.80
2019-05-25T03:23:17.023Z,14.70
2019-05-25T03:25:49.998Z,14.60
2019-05-25T03:28:20.798Z,14.60
2019-05-25T03:30:51.778Z,14.70
2019-05-25T03:33:22.800Z,14.80
2019-05-25T03:35:53.844Z,14.70
2019-05-25T03:38:24.973Z,14.80
2019-05-25T03:40:56.131Z,14.80
2019-05-25T03:43:27.293Z,14.80
2019-05-25T03:45:58.564Z,14.70
2019-05-25T03:48:29.611Z,14.50
2019-05-25T03:51:00.823Z,14.60
2019-05-25T03:53:32.030Z,14.80
2019-05-25T03:56:05.966Z,14.90
2019-05-25T03:58:35.565Z,14.90
2019-05-25T04:01:06.584Z,14.90
2019-05-25T04:03:37.468Z,14.90
2019-05-25T04:06:08.593Z,14.90
2019-05-25T04:08:39.314Z,14.90
2019-05-25T04:11:10.173Z,15.00
2019-05-25T04:13:41.244Z,15.10
2019-05-25T04:16:12.449Z,15.00
2019-05-25T04:18:43.857Z,14.90
2019-05-25T04:21:15.039Z,14.90
2019-05-25T04:23:46.008Z,15.00
2019-05-25T04:26:22.467Z,15.00
2019-05-25T04:28:49.778Z,15.10
2019-05-25T04:31:20.773Z,15.10
2019-05-25T04:33:52.028Z,15.20
2019-05-25T04:36:23.106Z,15.20
2019-05-25T04:38:54.257Z,15.30
2019-05-25T04:41:25.533Z,15.30
2019-05-25T04:43:56.649Z,15.40
2019-05-25T04:46:27.979Z,15.40
2019-05-25T04:48:59.098Z,15.50
2019-05-25T04:51:29.971Z,15.50
2019-05-25T04:54:01.614Z,15.60
2019-05-25T04:56:39.390Z,15.60
2019-05-25T04:59:05.649Z,15.60
2019-05-25T05:01:36.969Z,15.50
2019-05-25T05:04:07.859Z,15.50
2019-05-25T05:06:38.759Z,15.50
2019-05-25T05:09:10.093Z,15.50
2019-05-25T05:11:40.853Z,15.50
2019-05-25T05:14:11.873Z,15.70
2019-05-25T05:16:42.909Z,15.70
2019-05-25T05:19:13.548Z,15.70
2019-05-25T05:21:44.259Z,15.60
2019-05-25T05:24:14.993Z,15.40
2019-05-25T05:26:55.215Z,15.20
2019-05-25T05:29:18.458Z,15.30
2019-05-25T05:31:49.253Z,15.40
2019-05-25T05:34:19.884Z,15.40
2019-05-25T05:36:52.128Z,15.40
2019-05-25T05:39:23.863Z,15.50
2019-05-25T05:41:56.490Z,15.60
2019-05-25T05:44:29.157Z,15.80
2019-05-25T05:47:00.974Z,15.90
2019-05-25T05:49:32.563Z,15.90
2019-05-25T05:52:05.218Z,15.90
2019-05-25T05:54:37.363Z,16.00
2019-05-25T05:57:12.128Z,16.00
2019-05-25T05:59:40.734Z,16.10
2019-05-25T06:02:11.589Z,16.20
2019-05-25T06:04:42.225Z,16.30
2019-05-25T06:07:13.063Z,16.30
2019-05-25T06:09:44.294Z,16.30
2019-05-25T06:12:14.944Z,16.40
2019-05-25T06:14:45.972Z,16.60
2019-05-25T06:17:17.059Z,16.70
2019-05-25T06:19:48.056Z,16.70
2019-05-25T06:22:19.345Z,16.80
2019-05-25T06:24:50.608Z,16.90
2019-05-25T06:27:27.432Z,17.00
2019-05-25T06:29:54.403Z,17.00
2019-05-25T06:32:25.438Z,17.20
2019-05-25T06:34:56.859Z,17.30
2019-05-25T06:37:28.418Z,17.20
2019-05-25T06:39:59.788Z,17.40
2019-05-25T06:42:30.700Z,17.40
2019-05-25T06:45:01.602Z,17.60
2019-05-25T06:47:32.660Z,17.80
2019-05-25T06:50:03.463Z,17.70
2019-05-25T06:52:34.593Z,17.90
2019-05-25T06:55:05.995Z,18.00
2019-05-25T06:57:43.096Z,18.30
2019-05-25T07:00:10.499Z,18.30
2019-05-25T07:02:41.853Z,18.30
2019-05-25T07:05:12.663Z,18.60
2019-05-25T07:07:44.064Z,18.70
2019-05-25T07:10:15.505Z,18.80
2019-05-25T07:12:46.293Z,18.90
2019-05-25T07:15:18.483Z,18.90
2019-05-25T07:17:49.153Z,18.80
2019-05-25T07:20:20.449Z,19.00
2019-05-25T07:22:51.748Z,19.10
2019-05-25T07:25:22.344Z,18.90
2019-05-25T07:27:59.695Z,19.00
2019-05-25T07:30:25.643Z,19.30
2019-05-25T07:32:56.663Z,19.10
2019-05-25T07:35:27.383Z,19.20
2019-05-25T07:37:58.078Z,19.30
2019-05-25T07:40:28.717Z,19.60
2019-05-25T07:42:59.484Z,19.80
2019-05-25T07:45:30.328Z,19.90
2019-05-25T07:48:04.295Z,20.20
2019-05-25T07:50:35.288Z,20.40
2019-05-25T07:53:06.218Z,20.60
2019-05-25T07:55:37.070Z,20.50
2019-05-25T07:58:17.568Z,20.60
2019-05-25T08:00:42.406Z,20.50
2019-05-25T08:03:13.409Z,20.60
2019-05-25T08:05:44.548Z,20.60
2019-05-25T08:08:15.591Z,20.60
2019-05-25T08:10:46.335Z,20.80
2019-05-25T08:13:16.958Z,21.10
2019-05-25T08:15:47.753Z,21.30
2019-05-25T08:18:19.304Z,21.40
2019-05-25T08:20:50.070Z,21.20
2019-05-25T08:23:21.204Z,21.40
2019-05-25T08:25:52.246Z,21.70
2019-05-25T08:28:32.228Z,21.60
2019-05-25T08:30:55.769Z,21.80
2019-05-25T08:33:26.943Z,22.00
2019-05-25T08:35:58.628Z,21.90
2019-05-25T08:38:30.287Z,21.70
2019-05-25T08:41:01.479Z,21.90
2019-05-25T08:43:32.330Z,22.20
2019-05-25T08:46:03.508Z,22.40
2019-05-25T08:48:34.292Z,22.00
2019-05-25T08:51:05.169Z,22.00
2019-05-25T08:53:41.552Z,21.90
2019-05-25T08:56:08.599Z,22.00
2019-05-25T08:58:48.101Z,22.40
2019-05-25T09:01:11.774Z,22.50
2019-05-25T09:03:42.618Z,22.50
2019-05-25T09:06:13.439Z,22.60
2019-05-25T09:08:44.130Z,22.30
2019-05-25T09:11:15.429Z,22.40
2019-05-25T09:13:46.433Z,22.60
2019-05-25T09:16:17.679Z,22.70
2019-05-25T09:18:48.477Z,22.50
2019-05-25T09:21:19.494Z,22.40
2019-05-25T09:23:50.209Z,22.30
2019-05-25T09:26:21.048Z,22.50
2019-05-25T09:29:03.951Z,22.70
2019-05-25T09:31:24.346Z,22.70
2019-05-25T09:33:55.299Z,22.60
2019-05-25T09:36:26.104Z,22.50
2019-05-25T09:38:56.958Z,22.50
2019-05-25T09:41:28.140Z,22.80
2019-05-25T09:43:59.002Z,23.00
2019-05-25T09:46:30.009Z,23.20
2019-05-25T09:49:00.878Z,23.20
2019-05-25T09:51:32.533Z,23.10
2019-05-25T09:54:05.360Z,23.20
2019-05-25T09:56:36.299Z,23.10
2019-05-25T09:59:19.986Z,23.20
2019-05-25T10:01:45.064Z,23.40
2019-05-25T10:04:16.493Z,23.70
2019-05-25T10:06:47.448Z,23.80
2019-05-25T10:09:18.603Z,24.00
2019-05-25T10:11:49.369Z,24.10
2019-05-25T10:14:20.134Z,23.60
2019-05-25T10:16:50.964Z,23.70
2019-05-25T10:19:21.775Z,23.50
2019-05-25T10:21:52.618Z,23.80
2019-05-25T10:24:23.954Z,24.10
2019-05-25T10:26:54.883Z,24.20
2019-05-25T10:29:36.729Z,24.20
2019-05-25T10:31:58.409Z,24.40
2019-05-25T10:34:30.103Z,24.50
2019-05-25T10:37:00.978Z,24.10
2019-05-25T10:39:31.988Z,24.60
2019-05-25T10:42:02.760Z,24.60
2019-05-25T10:44:34.468Z,24.60
2019-05-25T10:47:05.443Z,24.50
2019-05-25T10:49:36.285Z,24.00
2019-05-25T10:52:07.257Z,24.10
2019-05-25T10:54:38.233Z,24.30
2019-05-25T10:57:09.179Z,24.60
2019-05-25T10:59:52.433Z,24.80
2019-05-25T11:02:13.093Z,25.20
2019-05-25T11:04:43.923Z,25.10
2019-05-25T11:07:14.913Z,25.40
2019-05-25T11:09:45.878Z,25.50
2019-05-25T11:12:16.767Z,25.40
2019-05-25T11:14:47.693Z,25.10
2019-05-25T11:17:18.574Z,25.10
2019-05-25T11:19:50.008Z,25.20
2019-05-25T11:22:20.800Z,25.40
2019-05-25T11:24:51.954Z,25.70
2019-05-25T11:27:22.935Z,25.40
2019-05-25T11:30:08.029Z,25.40
2019-05-25T11:32:26.678Z,25.40
2019-05-25T11:34:57.400Z,25.50
2019-05-25T11:37:28.509Z,25.60
2019-05-25T11:40:00.759Z,25.60
2019-05-25T11:42:31.753Z,25.90
2019-05-25T11:45:02.950Z,26.10
2019-05-25T11:47:34.133Z,26.20
2019-05-25T11:50:05.891Z,26.40
2019-05-25T11:52:38.009Z,26.30
2019-05-25T11:55:09.550Z,26.40
2019-05-25T11:57:40.405Z,26.70
2019-05-25T12:00:23.664Z,26.90
2019-05-25T12:02:44.124Z,26.30
2019-05-25T12:05:15.188Z,26.10
2019-05-25T12:07:45.885Z,25.90
2019-05-25T12:10:18.298Z,26.00
2019-05-25T12:12:48.952Z,26.50
2019-05-25T12:15:19.613Z,26.90
2019-05-25T12:17:50.458Z,26.50
2019-05-25T12:20:21.389Z,26.60
2019-05-25T12:22:52.144Z,26.90
2019-05-25T12:25:23.114Z,26.70
2019-05-25T12:27:53.982Z,27.20
2019-05-25T12:30:39.702Z,27.30
2019-05-25T12:32:57.981Z,27.00
2019-05-25T12:35:28.926Z,27.60
2019-05-25T12:37:59.649Z,28.00
2019-05-25T12:40:30.604Z,27.90
2019-05-25T12:43:01.349Z,27.70
2019-05-25T12:45:32.094Z,27.50
2019-05-25T12:48:03.255Z,28.10
2019-05-25T12:50:34.073Z,28.40
2019-05-25T12:53:04.869Z,28.30
2019-05-25T12:55:35.744Z,28.60
2019-05-25T12:58:06.674Z,28.10
2019-05-25T13:00:38.248Z,28.00
2019-05-25T13:03:10.989Z,28.30
2019-05-25T13:05:41.789Z,28.50
2019-05-25T13:08:12.657Z,29.00
2019-05-25T13:10:43.504Z,29.40
2019-05-25T13:13:14.416Z,28.60
2019-05-25T13:15:45.484Z,28.00
2019-05-25T13:18:16.360Z,28.60
2019-05-25T13:20:47.256Z,30.30
2019-05-25T13:23:18.314Z,31.40
2019-05-25T13:25:49.083Z,31.60
2019-05-25T13:28:19.990Z,32.40
2019-05-25T13:30:50.793Z,32.00
2019-05-25T13:33:21.725Z,32.60
2019-05-25T13:35:52.471Z,32.40
2019-05-25T13:38:23.359Z,32.40
2019-05-25T13:40:54.303Z,31.60
2019-05-25T13:43:25.034Z,30.70
2019-05-25T13:45:55.804Z,31.00
2019-05-25T13:48:26.694Z,30.90
2019-05-25T13:50:57.634Z,30.00
2019-05-25T13:53:28.479Z,31.60
2019-05-25T13:55:59.304Z,32.30
2019-05-25T13:58:30.123Z,32.30
2019-05-25T14:01:00.965Z,31.40
2019-05-25T14:03:31.754Z,30.80
2019-05-25T14:06:02.614Z,30.10
2019-05-25T14:08:33.519Z,30.00
2019-05-25T14:11:04.233Z,29.50
2019-05-25T14:13:34.934Z,27.50
2019-05-25T14:16:07.464Z,28.00
2019-05-25T14:18:38.148Z,27.80
2019-05-25T14:21:08.843Z,27.40
2019-05-25T14:23:39.764Z,27.60
2019-05-25T14:26:10.664Z,27.80
2019-05-25T14:28:41.444Z,27.20
2019-05-25T14:31:12.390Z,26.50
2019-05-25T14:33:43.188Z,24.20
2019-05-25T14:36:14.689Z,23.00
2019-05-25T14:38:45.803Z,22.70
2019-05-25T14:41:16.678Z,22.40
2019-05-25T14:43:47.339Z,22.10
2019-05-25T14:46:27.473Z,22.40
2019-05-25T14:48:50.713Z,22.50
2019-05-25T14:51:21.979Z,22.20
2019-05-25T14:53:52.692Z,21.90
2019-05-25T14:56:23.313Z,21.50
2019-05-25T14:58:54.194Z,21.30
2019-05-25T15:01:25.393Z,20.90
2019-05-25T15:03:56.589Z,20.60
2019-05-25T15:06:28.014Z,20.20
2019-05-25T15:08:59.158Z,20.00
2019-05-25T15:11:30.598Z,19.80
2019-05-25T15:14:01.934Z,19.70
2019-05-25T15:16:32.879Z,19.40
2019-05-25T15:19:04.463Z,19.20
2019-05-25T15:21:35.431Z,19.00
2019-05-25T15:24:06.708Z,19.00
2019-05-25T15:26:37.783Z,18.90
2019-05-25T15:29:11.524Z,18.80
2019-05-25T15:31:42.384Z,18.60
2019-05-25T15:34:13.509Z,18.70
2019-05-25T15:36:44.569Z,18.70
2019-05-25T15:39:17.483Z,18.70
2019-05-25T15:41:49.269Z,18.60
2019-05-25T15:44:20.328Z,18.70
2019-05-25T15:46:51.589Z,18.70
2019-05-25T15:49:32.438Z,18.80
2019-05-25T15:51:56.966Z,19.00
2019-05-25T15:54:28.414Z,19.10
2019-05-25T15:56:59.923Z,19.30
2019-05-25T15:59:30.881Z,19.40
2019-05-25T16:02:02.620Z,19.40
2019-05-25T16:04:33.519Z,19.50
2019-05-25T16:07:04.475Z,20.10
2019-05-25T16:09:35.548Z,21.00
2019-05-25T16:12:06.633Z,21.10
2019-05-25T16:14:37.509Z,21.40
2019-05-25T16:17:08.749Z,21.00
2019-05-25T16:19:39.739Z,19.00
2019-05-25T16:22:10.594Z,17.90
2019-05-25T16:24:42.123Z,17.40
2019-05-25T16:27:12.875Z,17.70
2019-05-25T16:29:44.238Z,18.00
2019-05-25T16:32:15.757Z,18.00
2019-05-25T16:34:46.533Z,18.10
2019-05-25T16:37:17.518Z,18.20
2019-05-25T16:39:48.515Z,18.20
2019-05-25T16:42:19.678Z,18.10
2019-05-25T16:44:50.344Z,18.10
2019-05-25T16:47:21.429Z,18.00
2019-05-25T16:49:52.130Z,17.90
2019-05-25T16:52:22.800Z,17.80
2019-05-25T16:54:53.748Z,17.60
2019-05-25T16:57:24.358Z,17.30
2019-05-25T16:59:55.140Z,17.40
2019-05-25T17:02:26.041Z,17.40
2019-05-25T17:04:56.718Z,17.60
2019-05-25T17:07:27.519Z,17.50
2019-05-25T17:09:58.387Z,17.60
2019-05-25T17:12:29.338Z,17.70
2019-05-25T17:15:00.004Z,17.70
2019-05-25T17:17:30.833Z,17.80
2019-05-25T17:20:01.547Z,17.90
2019-05-25T17:22:32.373Z,18.00
2019-05-25T17:25:03.425Z,17.90
2019-05-25T17:27:35.128Z,18.00
2019-05-25T17:30:06.404Z,18.00
2019-05-25T17:32:37.576Z,18.00
2019-05-25T17:35:09.610Z,18.10
2019-05-25T17:37:40.329Z,18.10
2019-05-25T17:40:12.989Z,18.00
2019-05-25T17:42:44.824Z,18.00
2019-05-25T17:45:17.294Z,18.00
2019-05-25T17:47:49.033Z,18.10
2019-05-25T17:50:20.407Z,18.10
2019-05-25T17:52:52.629Z,18.10
2019-05-25T17:55:23.334Z,18.10
2019-05-25T17:57:54.203Z,18.10
2019-05-25T18:00:41.689Z,18.10
2019-05-25T18:03:12.919Z,18.10
2019-05-25T18:05:45.308Z,17.90
2019-05-25T18:08:17.128Z,17.90
2019-05-25T18:10:53.439Z,17.90
2019-05-25T18:13:22.119Z,17.90
2019-05-25T18:15:53.029Z,17.80
2019-05-25T18:18:24.023Z,17.70
2019-05-25T18:20:54.804Z,17.60
2019-05-25T18:23:25.565Z,17.70
2019-05-25T18:25:56.408Z,17.70
2019-05-25T18:28:27.569Z,17.70
2019-05-25T18:30:58.473Z,17.70
2019-05-25T18:33:29.678Z,17.70
2019-05-25T18:36:01.175Z,17.70
2019-05-25T18:38:32.099Z,17.60
2019-05-25T18:41:02.849Z,17.50
2019-05-25T18:43:33.674Z,17.50
2019-05-25T18:46:05.143Z,17.60
2019-05-25T18:48:36.054Z,17.50
2019-05-25T18:51:07.154Z,17.50
2019-05-25T18:53:39.004Z,17.40
2019-05-25T18:56:10.080Z,17.40
2019-05-25T18:58:40.849Z,17.40
2019-05-25T19:01:11.963Z,17.40
2019-05-25T19:03:42.685Z,17.40
2019-05-25T19:06:16.294Z,17.20
2019-05-25T19:08:47.934Z,17.10
2019-05-25T19:11:19.259Z,17.10
2019-05-25T19:13:52.749Z,16.90
2019-05-25T19:16:23.544Z,16.90
2019-05-25T19:18:54.419Z,16.90
2019-05-25T19:21:26.144Z,16.90
2019-05-25T19:23:57.388Z,17.00
2019-05-25T19:26:28.940Z,17.00
2019-05-25T19:28:59.794Z,16.80
2019-05-25T19:31:30.931Z,16.70
2019-05-25T19:34:02.094Z,16.70
2019-05-25T19:36:33.679Z,16.70
2019-05-25T19:39:06.480Z,16.70
2019-05-25T19:41:37.854Z,16.70
2019-05-25T19:44:08.589Z,16.60
2019-05-25T19:46:39.360Z,16.60
2019-05-25T19:49:10.360Z,16.50
2019-05-25T19:51:41.309Z,16.30
2019-05-25T19:54:12.133Z,16.40
2019-05-25T19:56:43.010Z,16.50
2019-05-25T19:59:13.733Z,16.50
2019-05-25T20:01:44.815Z,16.40
2019-05-25T20:04:15.818Z,16.40
2019-05-25T20:06:46.694Z,16.50
2019-05-25T20:09:17.450Z,16.50
2019-05-25T20:11:48.381Z,16.50
2019-05-25T20:14:19.195Z,16.50
2019-05-25T20:16:50.149Z,16.50
2019-05-25T20:19:20.985Z,16.50
2019-05-25T20:21:51.794Z,16.40
2019-05-25T20:24:22.632Z,16.40
2019-05-25T20:26:53.379Z,16.40
2019-05-25T20:29:24.373Z,16.30
2019-05-25T20:31:55.287Z,16.20
2019-05-25T20:34:26.154Z,16.20
2019-05-25T20:36:56.876Z,16.30
2019-05-25T20:39:27.828Z,16.20
2019-05-25T20:41:58.679Z,16.20
2019-05-25T20:44:29.378Z,16.30
2019-05-25T20:47:00.213Z,16.40
2019-05-25T20:49:31.054Z,16.40
2019-05-25T20:52:01.974Z,16.40
2019-05-25T20:54:33.108Z,16.40
2019-05-25T20:57:03.984Z,16.40
2019-05-25T20:59:35.014Z,16.20
2019-05-25T21:02:06.589Z,16.20
2019-05-25T21:04:37.648Z,16.00
2019-05-25T21:07:09.851Z,15.80
2019-05-25T21:09:40.803Z,15.70
2019-05-25T21:12:11.540Z,15.80
2019-05-25T21:14:42.330Z,15.80
2019-05-25T21:17:13.173Z,15.70
2019-05-25T21:19:44.064Z,15.80
2019-05-25T21:22:15.108Z,15.80
2019-05-25T21:24:45.841Z,15.80
2019-05-25T21:27:16.595Z,15.80
2019-05-25T21:29:47.428Z,15.90
2019-05-25T21:32:18.224Z,15.90
2019-05-25T21:34:48.877Z,15.90
2019-05-25T21:37:19.924Z,15.80
2019-05-25T21:39:50.800Z,15.80
2019-05-25T21:42:21.555Z,15.70
2019-05-25T21:44:52.483Z,15.80
2019-05-25T21:47:23.309Z,15.70
2019-05-25T21:49:54.054Z,15.70
2019-05-25T21:52:24.925Z,15.80
2019-05-25T21:54:55.992Z,15.80
2019-05-25T21:57:26.854Z,15.80
2019-05-25T21:59:57.681Z,15.80
2019-05-25T22:02:28.709Z,15.80
2019-05-25T22:04:59.519Z,15.80
2019-05-25T22:07:30.362Z,15.80
2019-05-25T22:10:01.362Z,15.80
2019-05-25T22:12:32.203Z,15.80
2019-05-25T22:15:03.069Z,15.80
2019-05-25T22:17:33.774Z,15.90
2019-05-25T22:20:04.539Z,15.90
2019-05-25T22:22:35.273Z,16.00
2019-05-25T22:25:06.258Z,16.00
2019-05-25T22:27:36.848Z,16.20
2019-05-25T22:30:08.073Z,16.10
2019-05-25T22:32:38.908Z,16.00
2019-05-25T22:35:09.618Z,16.00
2019-05-25T22:37:40.368Z,16.00
2019-05-25T22:40:11.768Z,16.00
2019-05-25T22:42:42.578Z,16.00
2019-05-25T22:45:14.470Z,16.00
2019-05-25T22:47:45.373Z,16.00
2019-05-25T22:50:16.543Z,16.00
2019-05-25T22:52:47.383Z,16.00
2019-05-25T22:55:19.223Z,16.00
2019-05-25T22:57:50.074Z,16.00
2019-05-25T23:00:21.124Z,16.10
2019-05-25T23:02:52.018Z,16.10
2019-05-25T23:05:22.950Z,16.10
2019-05-25T23:07:54.570Z,16.10
2019-05-25T23:10:25.311Z,16.20
2019-05-25T23:12:56.003Z,16.10
2019-05-25T23:15:27.279Z,16.10
2019-05-25T23:17:58.233Z,16.20
2019-05-25T23:20:29.434Z,16.20
2019-05-25T23:23:00.443Z,16.20
2019-05-25T23:25:31.178Z,16.20
2019-05-25T23:28:02.035Z,16.20
2019-05-25T23:30:32.973Z,16.20
2019-05-25T23:33:03.714Z,16.10
2019-05-25T23:35:34.373Z,16.10
2019-05-25T23:38:05.210Z,16.10
2019-05-25T23:40:36.058Z,16.10
2019-05-25T23:43:06.848Z,16.20
2019-05-25T23:45:37.700Z,16.20
2019-05-25T23:48:08.595Z,16.10
2019-05-25T23:50:39.514Z,16.10
2019-05-25T23:53:10.423Z,16.00
2019-05-25T23:55:41.560Z,15.90
2019-05-25T23:58:12.338Z,15.90
